sensor_id;sensor_type;location;lat;lon;timestamp;P1;durP1;ratioP1;P2;durP2;ratioP2
51382;SDS011;37475;43.358;1.248;2023-02-23T00:03:49;62.17;;;28.30;;
51382;SDS011;37475;43.358;1.248;2023-02-23T00:06:16;85.57;;;33.55;;
51382;SDS011;37475;43.358;1.248;2023-02-23T00:08:44;64.53;;;29.60;;
51382;SDS011;37475;43.358;1.248;2023-02-23T00:11:14;80.05;;;32.25;;
51382;SDS011;37475;43.358;1.248;2023-02-23T00:13:41;67.75;;;29.40;;
51382;SDS011;37475;43.358;1.248;2023-02-23T00:16:15;50.22;;;22.42;;
51382;SDS011;37475;43.358;1.248;2023-02-23T00:18:48;51.00;;;22.13;;
51382;SDS011;37475;43.358;1.248;2023-02-23T00:21:18;39.38;;;17.90;;
51382;SDS011;37475;43.358;1.248;2023-02-23T00:24:03;43.33;;;18.45;;
51382;SDS011;37475;43.358;1.248;2023-02-23T00:26:33;48.10;;;19.35;;
51382;SDS011;37475;43.358;1.248;2023-02-23T00:29:02;56.53;;;20.35;;
51382;SDS011;37475;43.358;1.248;2023-02-23T00:31:32;47.92;;;20.10;;
51382;SDS011;37475;43.358;1.248;2023-02-23T00:33:59;42.88;;;17.88;;
51382;SDS011;37475;43.358;1.248;2023-02-23T00:36:28;44.75;;;17.92;;
51382;SDS011;37475;43.358;1.248;2023-02-23T00:39:00;36.85;;;16.58;;
51382;SDS011;37475;43.358;1.248;2023-02-23T00:41:42;43.30;;;18.42;;
51382;SDS011;37475;43.358;1.248;2023-02-23T00:44:10;60.45;;;19.55;;
51382;SDS011;37475;43.358;1.248;2023-02-23T00:46:39;60.47;;;20.55;;
51382;SDS011;37475;43.358;1.248;2023-02-23T00:49:07;63.90;;;22.50;;
51382;SDS011;37475;43.358;1.248;2023-02-23T00:51:35;50.05;;;19.75;;
51382;SDS011;37475;43.358;1.248;2023-02-23T00:54:01;58.83;;;22.83;;
51382;SDS011;37475;43.358;1.248;2023-02-23T00:56:27;51.92;;;20.70;;
51382;SDS011;37475;43.358;1.248;2023-02-23T00:58:54;47.80;;;20.08;;
51382;SDS011;37475;43.358;1.248;2023-02-23T01:01:20;51.10;;;21.27;;
51382;SDS011;37475;43.358;1.248;2023-02-23T01:03:47;80.28;;;25.73;;
51382;SDS011;37475;43.358;1.248;2023-02-23T01:06:14;451.40;;;30.45;;
51382;SDS011;37475;43.358;1.248;2023-02-23T01:08:45;113.10;;;21.45;;
51382;SDS011;37475;43.358;1.248;2023-02-23T01:11:15;77.20;;;20.98;;
51382;SDS011;37475;43.358;1.248;2023-02-23T01:13:54;39.03;;;17.80;;
51382;SDS011;37475;43.358;1.248;2023-02-23T01:16:22;185.82;;;24.13;;
51382;SDS011;37475;43.358;1.248;2023-02-23T01:18:52;211.63;;;23.55;;
51382;SDS011;37475;43.358;1.248;2023-02-23T01:21:21;492.52;;;33.45;;
51382;SDS011;37475;43.358;1.248;2023-02-23T01:23:49;76.43;;;19.33;;
51382;SDS011;37475;43.358;1.248;2023-02-23T01:28:50;33.20;;;15.15;;
51382;SDS011;37475;43.358;1.248;2023-02-23T01:31:25;46.55;;;18.80;;
51382;SDS011;37475;43.358;1.248;2023-02-23T01:33:52;63.80;;;22.02;;
51382;SDS011;37475;43.358;1.248;2023-02-23T01:36:20;59.67;;;21.58;;
51382;SDS011;37475;43.358;1.248;2023-02-23T01:38:47;67.45;;;23.55;;
51382;SDS011;37475;43.358;1.248;2023-02-23T01:41:14;53.55;;;21.40;;
51382;SDS011;37475;43.358;1.248;2023-02-23T01:46:32;59.35;;;19.30;;
51382;SDS011;37475;43.358;1.248;2023-02-23T01:49:04;267.23;;;27.80;;
51382;SDS011;37475;43.358;1.248;2023-02-23T01:51:33;160.65;;;23.85;;
51382;SDS011;37475;43.358;1.248;2023-02-23T01:54:15;437.70;;;34.28;;
51382;SDS011;37475;43.358;1.248;2023-02-23T01:56:47;81.65;;;20.35;;
51382;SDS011;37475;43.358;1.248;2023-02-23T01:59:22;60.00;;;16.95;;
51382;SDS011;37475;43.358;1.248;2023-02-23T02:01:59;69.45;;;16.98;;
51382;SDS011;37475;43.358;1.248;2023-02-23T02:04:29;577.92;;;40.53;;
51382;SDS011;37475;43.358;1.248;2023-02-23T02:07:07;299.17;;;25.45;;
51382;SDS011;37475;43.358;1.248;2023-02-23T02:09:42;40.45;;;16.27;;
51382;SDS011;37475;43.358;1.248;2023-02-23T02:12:29;152.02;;;19.38;;
51382;SDS011;37475;43.358;1.248;2023-02-23T02:14:55;109.75;;;17.20;;
51382;SDS011;37475;43.358;1.248;2023-02-23T02:17:32;299.67;;;30.30;;
51382;SDS011;37475;43.358;1.248;2023-02-23T02:26:34;97.28;;;17.98;;
51382;SDS011;37475;43.358;1.248;2023-02-23T02:48:13;60.92;;;21.90;;
51382;SDS011;37475;43.358;1.248;2023-02-23T02:51:13;96.55;;;24.52;;
51382;SDS011;37475;43.358;1.248;2023-02-23T02:53:51;178.23;;;26.23;;
51382;SDS011;37475;43.358;1.248;2023-02-23T02:56:30;403.63;;;39.42;;
51382;SDS011;37475;43.358;1.248;2023-02-23T03:01:55;406.10;;;36.05;;
51382;SDS011;37475;43.358;1.248;2023-02-23T03:04:40;82.68;;;20.30;;
51382;SDS011;37475;43.358;1.248;2023-02-23T03:07:33;102.05;;;22.65;;
51382;SDS011;37475;43.358;1.248;2023-02-23T03:10:33;58.40;;;18.50;;
51382;SDS011;37475;43.358;1.248;2023-02-23T03:19:57;47.58;;;17.45;;
51382;SDS011;37475;43.358;1.248;2023-02-23T03:22:55;34.13;;;16.83;;
51382;SDS011;37475;43.358;1.248;2023-02-23T03:25:57;35.92;;;18.15;;
51382;SDS011;37475;43.358;1.248;2023-02-23T03:29:08;31.85;;;16.95;;
51382;SDS011;37475;43.358;1.248;2023-02-23T03:32:35;27.10;;;14.77;;
51382;SDS011;37475;43.358;1.248;2023-02-23T03:38:44;91.25;;;19.52;;
51382;SDS011;37475;43.358;1.248;2023-02-23T03:41:45;95.88;;;17.63;;
51382;SDS011;37475;43.358;1.248;2023-02-23T03:44:32;291.52;;;28.40;;
51382;SDS011;37475;43.358;1.248;2023-02-23T03:47:23;131.95;;;19.92;;
51382;SDS011;37475;43.358;1.248;2023-02-23T03:50:17;231.13;;;22.60;;
51382;SDS011;37475;43.358;1.248;2023-02-23T03:53:20;150.52;;;20.38;;
51382;SDS011;37475;43.358;1.248;2023-02-23T03:56:18;188.95;;;22.38;;
51382;SDS011;37475;43.358;1.248;2023-02-23T03:59:07;109.05;;;19.30;;
51382;SDS011;37475;43.358;1.248;2023-02-23T04:01:54;171.93;;;24.73;;
51382;SDS011;37475;43.358;1.248;2023-02-23T04:04:40;251.45;;;33.33;;
51382;SDS011;37475;43.358;1.248;2023-02-23T04:07:27;173.85;;;29.70;;
51382;SDS011;37475;43.358;1.248;2023-02-23T04:10:12;279.42;;;36.53;;
51382;SDS011;37475;43.358;1.248;2023-02-23T04:15:47;219.20;;;25.38;;
51382;SDS011;37475;43.358;1.248;2023-02-23T04:18:19;363.85;;;30.95;;
51382;SDS011;37475;43.358;1.248;2023-02-23T04:20:55;122.10;;;18.42;;
51382;SDS011;37475;43.358;1.248;2023-02-23T04:23:22;327.27;;;26.63;;
51382;SDS011;37475;43.358;1.248;2023-02-23T04:25:49;145.23;;;20.13;;
51382;SDS011;37475;43.358;1.248;2023-02-23T04:28:17;204.02;;;22.70;;
51382;SDS011;37475;43.358;1.248;2023-02-23T04:30:43;124.07;;;19.00;;
51382;SDS011;37475;43.358;1.248;2023-02-23T04:33:10;100.75;;;17.63;;
51382;SDS011;37475;43.358;1.248;2023-02-23T04:35:36;112.85;;;17.75;;
51382;SDS011;37475;43.358;1.248;2023-02-23T04:38:02;142.23;;;19.65;;
51382;SDS011;37475;43.358;1.248;2023-02-23T04:40:28;147.90;;;19.60;;
51382;SDS011;37475;43.358;1.248;2023-02-23T04:42:54;170.35;;;19.15;;
51382;SDS011;37475;43.358;1.248;2023-02-23T04:45:20;182.13;;;19.63;;
51382;SDS011;37475;43.358;1.248;2023-02-23T04:47:48;190.43;;;20.05;;
51382;SDS011;37475;43.358;1.248;2023-02-23T04:50:14;213.48;;;20.30;;
51382;SDS011;37475;43.358;1.248;2023-02-23T04:52:41;243.07;;;18.77;;
51382;SDS011;37475;43.358;1.248;2023-02-23T04:55:07;324.33;;;28.77;;
51382;SDS011;37475;43.358;1.248;2023-02-23T04:57:44;211.32;;;20.00;;
51382;SDS011;37475;43.358;1.248;2023-02-23T05:00:10;177.40;;;16.88;;
51382;SDS011;37475;43.358;1.248;2023-02-23T05:02:37;255.35;;;20.98;;
51382;SDS011;37475;43.358;1.248;2023-02-23T05:05:03;176.93;;;22.23;;
51382;SDS011;37475;43.358;1.248;2023-02-23T05:07:29;264.80;;;23.30;;
51382;SDS011;37475;43.358;1.248;2023-02-23T05:09:55;172.82;;;22.38;;
51382;SDS011;37475;43.358;1.248;2023-02-23T05:12:21;304.10;;;27.52;;
51382;SDS011;37475;43.358;1.248;2023-02-23T05:14:47;319.98;;;29.25;;
51382;SDS011;37475;43.358;1.248;2023-02-23T05:17:12;222.50;;;23.20;;
51382;SDS011;37475;43.358;1.248;2023-02-23T05:19:38;244.88;;;22.48;;
51382;SDS011;37475;43.358;1.248;2023-02-23T05:22:04;385.25;;;33.33;;
51382;SDS011;37475;43.358;1.248;2023-02-23T05:24:30;195.80;;;23.13;;
51382;SDS011;37475;43.358;1.248;2023-02-23T05:26:56;227.50;;;25.92;;
51382;SDS011;37475;43.358;1.248;2023-02-23T05:29:22;187.75;;;22.98;;
51382;SDS011;37475;43.358;1.248;2023-02-23T05:31:49;138.35;;;20.02;;
51382;SDS011;37475;43.358;1.248;2023-02-23T05:34:14;237.02;;;25.17;;
51382;SDS011;37475;43.358;1.248;2023-02-23T05:36:41;164.98;;;25.45;;
51382;SDS011;37475;43.358;1.248;2023-02-23T05:39:07;81.53;;;18.88;;
51382;SDS011;37475;43.358;1.248;2023-02-23T05:41:33;101.28;;;19.73;;
51382;SDS011;37475;43.358;1.248;2023-02-23T05:43:59;89.53;;;19.98;;
51382;SDS011;37475;43.358;1.248;2023-02-23T05:46:25;95.20;;;21.15;;
51382;SDS011;37475;43.358;1.248;2023-02-23T05:48:58;120.10;;;26.90;;
51382;SDS011;37475;43.358;1.248;2023-02-23T05:51:26;100.90;;;21.98;;
51382;SDS011;37475;43.358;1.248;2023-02-23T05:53:54;147.02;;;25.92;;
51382;SDS011;37475;43.358;1.248;2023-02-23T05:56:20;229.93;;;29.10;;
51382;SDS011;37475;43.358;1.248;2023-02-23T05:58:49;402.20;;;46.60;;
51382;SDS011;37475;43.358;1.248;2023-02-23T06:01:18;275.98;;;36.30;;
51382;SDS011;37475;43.358;1.248;2023-02-23T06:03:46;422.25;;;44.28;;
51382;SDS011;37475;43.358;1.248;2023-02-23T06:06:13;230.82;;;42.97;;
51382;SDS011;37475;43.358;1.248;2023-02-23T06:08:40;365.05;;;42.55;;
51382;SDS011;37475;43.358;1.248;2023-02-23T06:11:06;339.67;;;33.10;;
51382;SDS011;37475;43.358;1.248;2023-02-23T06:13:33;156.95;;;23.35;;
51382;SDS011;37475;43.358;1.248;2023-02-23T06:15:59;181.88;;;25.88;;
51382;SDS011;37475;43.358;1.248;2023-02-23T06:18:25;49.60;;;16.90;;
51382;SDS011;37475;43.358;1.248;2023-02-23T06:20:52;39.08;;;15.85;;
51382;SDS011;37475;43.358;1.248;2023-02-23T06:23:18;82.97;;;20.17;;
51382;SDS011;37475;43.358;1.248;2023-02-23T06:25:44;175.30;;;30.80;;
51382;SDS011;37475;43.358;1.248;2023-02-23T06:28:11;145.15;;;27.17;;
51382;SDS011;37475;43.358;1.248;2023-02-23T06:30:38;98.28;;;24.33;;
51382;SDS011;37475;43.358;1.248;2023-02-23T06:33:04;72.25;;;20.80;;
51382;SDS011;37475;43.358;1.248;2023-02-23T06:35:31;102.78;;;22.55;;
51382;SDS011;37475;43.358;1.248;2023-02-23T06:37:59;114.60;;;23.25;;
51382;SDS011;37475;43.358;1.248;2023-02-23T06:40:25;104.03;;;22.98;;
51382;SDS011;37475;43.358;1.248;2023-02-23T06:42:52;152.45;;;25.83;;
51382;SDS011;37475;43.358;1.248;2023-02-23T06:45:18;108.70;;;23.67;;
51382;SDS011;37475;43.358;1.248;2023-02-23T06:47:44;87.60;;;21.85;;
51382;SDS011;37475;43.358;1.248;2023-02-23T06:50:11;73.65;;;21.17;;
51382;SDS011;37475;43.358;1.248;2023-02-23T06:52:38;57.15;;;18.50;;
51382;SDS011;37475;43.358;1.248;2023-02-23T06:55:04;71.93;;;20.27;;
51382;SDS011;37475;43.358;1.248;2023-02-23T06:57:31;107.45;;;21.77;;
51382;SDS011;37475;43.358;1.248;2023-02-23T06:59:57;130.45;;;22.63;;
51382;SDS011;37475;43.358;1.248;2023-02-23T07:02:23;69.80;;;19.85;;
51382;SDS011;37475;43.358;1.248;2023-02-23T07:04:49;91.72;;;21.58;;
51382;SDS011;37475;43.358;1.248;2023-02-23T07:07:14;114.63;;;21.95;;
51382;SDS011;37475;43.358;1.248;2023-02-23T07:09:40;118.70;;;20.52;;
51382;SDS011;37475;43.358;1.248;2023-02-23T07:12:07;116.28;;;24.25;;
51382;SDS011;37475;43.358;1.248;2023-02-23T07:14:34;139.27;;;25.20;;
51382;SDS011;37475;43.358;1.248;2023-02-23T07:17:01;74.32;;;20.30;;
51382;SDS011;37475;43.358;1.248;2023-02-23T07:19:28;82.47;;;16.63;;
51382;SDS011;37475;43.358;1.248;2023-02-23T07:21:55;100.70;;;20.55;;
51382;SDS011;37475;43.358;1.248;2023-02-23T07:24:21;113.35;;;21.90;;
51382;SDS011;37475;43.358;1.248;2023-02-23T07:26:47;93.13;;;20.48;;
51382;SDS011;37475;43.358;1.248;2023-02-23T07:29:13;92.38;;;18.58;;
51382;SDS011;37475;43.358;1.248;2023-02-23T07:31:39;94.47;;;20.33;;
51382;SDS011;37475;43.358;1.248;2023-02-23T07:34:06;93.50;;;18.42;;
51382;SDS011;37475;43.358;1.248;2023-02-23T07:36:33;81.95;;;19.08;;
51382;SDS011;37475;43.358;1.248;2023-02-23T07:39:00;83.22;;;15.63;;
51382;SDS011;37475;43.358;1.248;2023-02-23T07:41:29;97.78;;;16.83;;
51382;SDS011;37475;43.358;1.248;2023-02-23T07:43:55;71.82;;;14.70;;
51382;SDS011;37475;43.358;1.248;2023-02-23T07:46:23;110.38;;;19.60;;
51382;SDS011;37475;43.358;1.248;2023-02-23T07:48:50;94.03;;;18.50;;
51382;SDS011;37475;43.358;1.248;2023-02-23T07:51:16;102.93;;;19.60;;
51382;SDS011;37475;43.358;1.248;2023-02-23T07:53:42;108.50;;;21.33;;
51382;SDS011;37475;43.358;1.248;2023-02-23T07:56:08;87.18;;;18.27;;
51382;SDS011;37475;43.358;1.248;2023-02-23T07:58:39;79.43;;;19.15;;
51382;SDS011;37475;43.358;1.248;2023-02-23T08:01:08;67.13;;;18.05;;
51382;SDS011;37475;43.358;1.248;2023-02-23T08:03:34;62.40;;;17.48;;
51382;SDS011;37475;43.358;1.248;2023-02-23T08:06:00;44.92;;;15.82;;
51382;SDS011;37475;43.358;1.248;2023-02-23T08:08:26;42.63;;;16.48;;
51382;SDS011;37475;43.358;1.248;2023-02-23T08:11:00;59.50;;;17.27;;
51382;SDS011;37475;43.358;1.248;2023-02-23T08:13:27;43.50;;;17.52;;
51382;SDS011;37475;43.358;1.248;2023-02-23T08:15:55;41.55;;;16.40;;
51382;SDS011;37475;43.358;1.248;2023-02-23T08:18:21;57.03;;;18.85;;
51382;SDS011;37475;43.358;1.248;2023-02-23T08:20:48;55.10;;;19.17;;
51382;SDS011;37475;43.358;1.248;2023-02-23T08:23:13;48.88;;;19.42;;
51382;SDS011;37475;43.358;1.248;2023-02-23T08:25:42;48.10;;;19.33;;
51382;SDS011;37475;43.358;1.248;2023-02-23T08:28:08;58.13;;;20.13;;
51382;SDS011;37475;43.358;1.248;2023-02-23T08:30:34;58.17;;;19.75;;
51382;SDS011;37475;43.358;1.248;2023-02-23T08:33:00;40.78;;;15.13;;
51382;SDS011;37475;43.358;1.248;2023-02-23T08:35:26;14.43;;;5.30;;
51382;SDS011;37475;43.358;1.248;2023-02-23T08:37:53;6.95;;;2.13;;
51382;SDS011;37475;43.358;1.248;2023-02-23T08:40:21;9.90;;;2.38;;
51382;SDS011;37475;43.358;1.248;2023-02-23T08:42:47;5.38;;;2.10;;
51382;SDS011;37475;43.358;1.248;2023-02-23T08:45:16;3.92;;;1.75;;
51382;SDS011;37475;43.358;1.248;2023-02-23T08:47:43;3.60;;;1.88;;
51382;SDS011;37475;43.358;1.248;2023-02-23T08:50:09;5.85;;;1.40;;
51382;SDS011;37475;43.358;1.248;2023-02-23T08:52:36;4.20;;;1.83;;
51382;SDS011;37475;43.358;1.248;2023-02-23T08:55:04;2.30;;;1.17;;
51382;SDS011;37475;43.358;1.248;2023-02-23T08:57:34;2.50;;;1.00;;
51382;SDS011;37475;43.358;1.248;2023-02-23T09:00:00;2.38;;;1.10;;
51382;SDS011;37475;43.358;1.248;2023-02-23T09:02:26;1.52;;;0.90;;
51382;SDS011;37475;43.358;1.248;2023-02-23T09:04:53;1.98;;;1.10;;
51382;SDS011;37475;43.358;1.248;2023-02-23T09:07:20;2.10;;;1.02;;
51382;SDS011;37475;43.358;1.248;2023-02-23T09:09:56;3.13;;;1.45;;
51382;SDS011;37475;43.358;1.248;2023-02-23T09:12:22;2.85;;;1.58;;
51382;SDS011;37475;43.358;1.248;2023-02-23T09:14:48;3.03;;;1.38;;
51382;SDS011;37475;43.358;1.248;2023-02-23T09:17:16;2.95;;;1.10;;
51382;SDS011;37475;43.358;1.248;2023-02-23T09:19:42;0.95;;;0.73;;
51382;SDS011;37475;43.358;1.248;2023-02-23T09:22:08;2.78;;;1.38;;
51382;SDS011;37475;43.358;1.248;2023-02-23T09:24:34;3.80;;;1.52;;
51382;SDS011;37475;43.358;1.248;2023-02-23T09:27:00;2.78;;;1.33;;
51382;SDS011;37475;43.358;1.248;2023-02-23T09:29:25;3.05;;;1.30;;
51382;SDS011;37475;43.358;1.248;2023-02-23T09:31:51;1.83;;;1.10;;
51382;SDS011;37475;43.358;1.248;2023-02-23T09:34:18;1.80;;;1.02;;
51382;SDS011;37475;43.358;1.248;2023-02-23T09:36:44;3.28;;;1.10;;
51382;SDS011;37475;43.358;1.248;2023-02-23T09:39:10;2.72;;;1.33;;
51382;SDS011;37475;43.358;1.248;2023-02-23T09:47:30;1.92;;;1.02;;
51382;SDS011;37475;43.358;1.248;2023-02-23T09:50:22;1.88;;;0.90;;
51382;SDS011;37475;43.358;1.248;2023-02-23T09:52:53;2.58;;;1.10;;
51382;SDS011;37475;43.358;1.248;2023-02-23T09:55:28;1.90;;;0.80;;
51382;SDS011;37475;43.358;1.248;2023-02-23T09:57:55;0.95;;;0.63;;
51382;SDS011;37475;43.358;1.248;2023-02-23T10:00:28;0.63;;;0.50;;
51382;SDS011;37475;43.358;1.248;2023-02-23T10:05:57;1.88;;;0.68;;
51382;SDS011;37475;43.358;1.248;2023-02-23T10:11:23;2.05;;;0.73;;
51382;SDS011;37475;43.358;1.248;2023-02-23T10:14:03;2.00;;;1.08;;
51382;SDS011;37475;43.358;1.248;2023-02-23T10:16:44;5.75;;;1.00;;
51382;SDS011;37475;43.358;1.248;2023-02-23T10:22:10;1.42;;;0.80;;
51382;SDS011;37475;43.358;1.248;2023-02-23T10:24:39;1.25;;;0.88;;
51382;SDS011;37475;43.358;1.248;2023-02-23T10:32:24;1.17;;;0.85;;
51382;SDS011;37475;43.358;1.248;2023-02-23T10:35:00;1.20;;;0.65;;
51382;SDS011;37475;43.358;1.248;2023-02-23T10:37:36;2.65;;;1.40;;
51382;SDS011;37475;43.358;1.248;2023-02-23T10:40:03;6.53;;;2.95;;
51382;SDS011;37475;43.358;1.248;2023-02-23T10:42:30;2.80;;;1.27;;
51382;SDS011;37475;43.358;1.248;2023-02-23T10:44:57;9.00;;;3.90;;
51382;SDS011;37475;43.358;1.248;2023-02-23T10:47:24;1.65;;;0.93;;
51382;SDS011;37475;43.358;1.248;2023-02-23T10:50:00;2.78;;;1.33;;
51382;SDS011;37475;43.358;1.248;2023-02-23T10:55:03;5.90;;;2.42;;
51382;SDS011;37475;43.358;1.248;2023-02-23T10:57:32;4.50;;;1.90;;
51382;SDS011;37475;43.358;1.248;2023-02-23T11:02:40;1.83;;;0.90;;
51382;SDS011;37475;43.358;1.248;2023-02-23T11:05:13;5.82;;;3.00;;
51382;SDS011;37475;43.358;1.248;2023-02-23T11:08:16;4.30;;;1.95;;
51382;SDS011;37475;43.358;1.248;2023-02-23T11:16:07;3.08;;;1.50;;
51382;SDS011;37475;43.358;1.248;2023-02-23T11:18:38;2.20;;;1.10;;
51382;SDS011;37475;43.358;1.248;2023-02-23T11:21:11;1.90;;;1.05;;
51382;SDS011;37475;43.358;1.248;2023-02-23T11:23:42;1.80;;;0.90;;
51382;SDS011;37475;43.358;1.248;2023-02-23T11:26:18;2.05;;;0.80;;
51382;SDS011;37475;43.358;1.248;2023-02-23T11:29:01;2.20;;;1.05;;
51382;SDS011;37475;43.358;1.248;2023-02-23T11:31:36;1.92;;;0.95;;
51382;SDS011;37475;43.358;1.248;2023-02-23T11:34:04;2.15;;;1.20;;
51382;SDS011;37475;43.358;1.248;2023-02-23T11:36:32;1.77;;;0.93;;
51382;SDS011;37475;43.358;1.248;2023-02-23T11:39:06;0.82;;;0.63;;
51382;SDS011;37475;43.358;1.248;2023-02-23T11:41:38;2.47;;;0.93;;
51382;SDS011;37475;43.358;1.248;2023-02-23T11:44:04;1.48;;;0.90;;
51382;SDS011;37475;43.358;1.248;2023-02-23T11:46:30;1.23;;;0.82;;
51382;SDS011;37475;43.358;1.248;2023-02-23T11:49:07;1.25;;;0.70;;
51382;SDS011;37475;43.358;1.248;2023-02-23T11:51:45;1.38;;;0.90;;
51382;SDS011;37475;43.358;1.248;2023-02-23T11:54:28;2.08;;;1.00;;
51382;SDS011;37475;43.358;1.248;2023-02-23T11:56:59;1.33;;;0.80;;
51382;SDS011;37475;43.358;1.248;2023-02-23T11:59:37;1.95;;;0.80;;
51382;SDS011;37475;43.358;1.248;2023-02-23T12:02:17;0.85;;;0.50;;
51382;SDS011;37475;43.358;1.248;2023-02-23T12:04:50;0.55;;;0.50;;
51382;SDS011;37475;43.358;1.248;2023-02-23T12:15:58;2.40;;;0.85;;
51382;SDS011;37475;43.358;1.248;2023-02-23T12:23:59;0.80;;;0.52;;
51382;SDS011;37475;43.358;1.248;2023-02-23T12:26:59;1.10;;;0.50;;
51382;SDS011;37475;43.358;1.248;2023-02-23T12:29:41;1.00;;;0.50;;
51382;SDS011;37475;43.358;1.248;2023-02-23T12:32:37;0.98;;;0.70;;
51382;SDS011;37475;43.358;1.248;2023-02-23T12:35:15;0.90;;;0.60;;
51382;SDS011;37475;43.358;1.248;2023-02-23T12:38:00;1.27;;;0.50;;
51382;SDS011;37475;43.358;1.248;2023-02-23T12:41:11;1.52;;;0.70;;
51382;SDS011;37475;43.358;1.248;2023-02-23T12:46:36;1.20;;;0.50;;
51382;SDS011;37475;43.358;1.248;2023-02-23T12:49:27;1.48;;;0.80;;
51382;SDS011;37475;43.358;1.248;2023-02-23T12:52:12;0.98;;;0.60;;
51382;SDS011;37475;43.358;1.248;2023-02-23T12:54:49;0.98;;;0.60;;
51382;SDS011;37475;43.358;1.248;2023-02-23T13:03:20;1.67;;;0.77;;
51382;SDS011;37475;43.358;1.248;2023-02-23T13:06:10;1.70;;;0.60;;
51382;SDS011;37475;43.358;1.248;2023-02-23T13:09:04;0.90;;;0.60;;
51382;SDS011;37475;43.358;1.248;2023-02-23T13:12:51;1.25;;;0.80;;
51382;SDS011;37475;43.358;1.248;2023-02-23T13:15:22;1.00;;;0.65;;
51382;SDS011;37475;43.358;1.248;2023-02-23T13:32:12;1.80;;;1.00;;
51382;SDS011;37475;43.358;1.248;2023-02-23T13:37:30;18.00;;;10.50;;
51382;SDS011;37475;43.358;1.248;2023-02-23T13:48:57;4.70;;;2.60;;
51382;SDS011;37475;43.358;1.248;2023-02-23T13:51:51;4.70;;;2.25;;
51382;SDS011;37475;43.358;1.248;2023-02-23T13:54:31;7.15;;;4.03;;
51382;SDS011;37475;43.358;1.248;2023-02-23T13:59:27;5.88;;;2.83;;
51382;SDS011;37475;43.358;1.248;2023-02-23T14:01:59;4.78;;;2.50;;
51382;SDS011;37475;43.358;1.248;2023-02-23T14:04:55;1.65;;;0.90;;
51382;SDS011;37475;43.358;1.248;2023-02-23T14:07:27;2.10;;;1.10;;
51382;SDS011;37475;43.358;1.248;2023-02-23T14:15:45;1.00;;;0.80;;
51382;SDS011;37475;43.358;1.248;2023-02-23T14:34:55;1.70;;;0.90;;
51382;SDS011;37475;43.358;1.248;2023-02-23T14:42:50;1.15;;;0.70;;
51382;SDS011;37475;43.358;1.248;2023-02-23T14:45:21;2.28;;;0.80;;
51382;SDS011;37475;43.358;1.248;2023-02-23T14:47:51;4.13;;;1.52;;
51382;SDS011;37475;43.358;1.248;2023-02-23T14:50:30;4.40;;;2.40;;
51382;SDS011;37475;43.358;1.248;2023-02-23T14:52:59;4.45;;;2.15;;
51382;SDS011;37475;43.358;1.248;2023-02-23T14:55:32;3.70;;;1.83;;
51382;SDS011;37475;43.358;1.248;2023-02-23T14:58:02;3.40;;;1.70;;
51382;SDS011;37475;43.358;1.248;2023-02-23T15:00:42;1.85;;;0.93;;
51382;SDS011;37475;43.358;1.248;2023-02-23T15:03:09;2.00;;;1.08;;
51382;SDS011;37475;43.358;1.248;2023-02-23T15:08:26;2.00;;;0.93;;
51382;SDS011;37475;43.358;1.248;2023-02-23T15:11:12;8.77;;;2.72;;
51382;SDS011;37475;43.358;1.248;2023-02-23T15:13:39;3.47;;;1.40;;
51382;SDS011;37475;43.358;1.248;2023-02-23T15:16:15;2.38;;;1.40;;
51382;SDS011;37475;43.358;1.248;2023-02-23T15:18:50;3.22;;;1.48;;
51382;SDS011;37475;43.358;1.248;2023-02-23T15:21:18;1.30;;;0.80;;
51382;SDS011;37475;43.358;1.248;2023-02-23T15:23:47;1.58;;;1.00;;
51382;SDS011;37475;43.358;1.248;2023-02-23T15:26:39;1.90;;;1.00;;
51382;SDS011;37475;43.358;1.248;2023-02-23T15:29:18;2.45;;;1.30;;
51382;SDS011;37475;43.358;1.248;2023-02-23T15:31:51;1.40;;;1.00;;
51382;SDS011;37475;43.358;1.248;2023-02-23T15:34:26;1.70;;;0.90;;
51382;SDS011;37475;43.358;1.248;2023-02-23T15:36:58;1.65;;;1.05;;
51382;SDS011;37475;43.358;1.248;2023-02-23T15:42:42;2.00;;;1.10;;
51382;SDS011;37475;43.358;1.248;2023-02-23T15:48:05;2.25;;;1.00;;
51382;SDS011;37475;43.358;1.248;2023-02-23T15:50:42;1.98;;;1.10;;
51382;SDS011;37475;43.358;1.248;2023-02-23T15:53:32;2.00;;;1.00;;
51382;SDS011;37475;43.358;1.248;2023-02-23T15:58:55;1.92;;;1.10;;
51382;SDS011;37475;43.358;1.248;2023-02-23T16:01:26;2.08;;;1.20;;
51382;SDS011;37475;43.358;1.248;2023-02-23T16:06:44;2.42;;;1.40;;
51382;SDS011;37475;43.358;1.248;2023-02-23T16:11:52;2.38;;;1.40;;
51382;SDS011;37475;43.358;1.248;2023-02-23T16:14:40;2.90;;;1.40;;
51382;SDS011;37475;43.358;1.248;2023-02-23T16:17:30;2.85;;;1.60;;
51382;SDS011;37475;43.358;1.248;2023-02-23T16:22:39;4.05;;;2.30;;
51382;SDS011;37475;43.358;1.248;2023-02-23T16:25:14;5.13;;;1.90;;
51382;SDS011;37475;43.358;1.248;2023-02-23T16:27:42;5.78;;;3.03;;
51382;SDS011;37475;43.358;1.248;2023-02-23T16:30:20;5.05;;;2.72;;
51382;SDS011;37475;43.358;1.248;2023-02-23T16:35:46;6.63;;;3.80;;
51382;SDS011;37475;43.358;1.248;2023-02-23T16:41:05;3.55;;;1.98;;
51382;SDS011;37475;43.358;1.248;2023-02-23T16:43:49;4.13;;;2.30;;
51382;SDS011;37475;43.358;1.248;2023-02-23T16:46:18;4.82;;;2.63;;
51382;SDS011;37475;43.358;1.248;2023-02-23T16:48:48;4.50;;;2.00;;
51382;SDS011;37475;43.358;1.248;2023-02-23T16:51:17;5.25;;;2.97;;
51382;SDS011;37475;43.358;1.248;2023-02-23T16:53:46;3.72;;;2.35;;
51382;SDS011;37475;43.358;1.248;2023-02-23T16:56:16;3.65;;;2.45;;
51382;SDS011;37475;43.358;1.248;2023-02-23T16:58:46;4.80;;;2.58;;
51382;SDS011;37475;43.358;1.248;2023-02-23T17:01:16;5.38;;;2.60;;
51382;SDS011;37475;43.358;1.248;2023-02-23T17:03:42;5.03;;;2.20;;
51382;SDS011;37475;43.358;1.248;2023-02-23T17:06:09;3.42;;;2.30;;
51382;SDS011;37475;43.358;1.248;2023-02-23T17:08:37;4.45;;;2.13;;
51382;SDS011;37475;43.358;1.248;2023-02-23T17:11:03;3.63;;;2.38;;
51382;SDS011;37475;43.358;1.248;2023-02-23T17:13:30;4.38;;;2.70;;
51382;SDS011;37475;43.358;1.248;2023-02-23T17:15:57;6.53;;;2.80;;
51382;SDS011;37475;43.358;1.248;2023-02-23T17:18:28;5.22;;;2.63;;
51382;SDS011;37475;43.358;1.248;2023-02-23T17:20:58;6.75;;;3.20;;
51382;SDS011;37475;43.358;1.248;2023-02-23T17:23:28;8.18;;;4.60;;
51382;SDS011;37475;43.358;1.248;2023-02-23T17:26:07;7.80;;;5.53;;
51382;SDS011;37475;43.358;1.248;2023-02-23T17:28:35;8.60;;;5.85;;
51382;SDS011;37475;43.358;1.248;2023-02-23T17:31:01;9.50;;;7.78;;
51382;SDS011;37475;43.358;1.248;2023-02-23T17:33:28;21.17;;;15.00;;
51382;SDS011;37475;43.358;1.248;2023-02-23T17:35:59;16.20;;;11.13;;
51382;SDS011;37475;43.358;1.248;2023-02-23T17:38:25;9.27;;;7.10;;
51382;SDS011;37475;43.358;1.248;2023-02-23T17:40:59;7.07;;;4.97;;
51382;SDS011;37475;43.358;1.248;2023-02-23T17:43:33;17.90;;;13.45;;
51382;SDS011;37475;43.358;1.248;2023-02-23T17:46:00;16.42;;;12.77;;
51382;SDS011;37475;43.358;1.248;2023-02-23T17:48:26;8.23;;;5.20;;
51382;SDS011;37475;43.358;1.248;2023-02-23T17:50:56;10.52;;;7.65;;
51382;SDS011;37475;43.358;1.248;2023-02-23T17:53:23;13.90;;;9.65;;
51382;SDS011;37475;43.358;1.248;2023-02-23T17:55:50;6.60;;;4.57;;
51382;SDS011;37475;43.358;1.248;2023-02-23T17:58:17;9.02;;;5.28;;
51382;SDS011;37475;43.358;1.248;2023-02-23T18:00:44;11.25;;;6.70;;
51382;SDS011;37475;43.358;1.248;2023-02-23T18:03:10;7.78;;;4.88;;
51382;SDS011;37475;43.358;1.248;2023-02-23T18:05:36;13.07;;;8.80;;